Terminal Aerodrome Forecast
Issued by NWS

Home | Current Version | Previous Version | Text Only | Print | Product List | Glossary On
Versions: 1 2 3 4 5 6 7 8 9 10 11 12
782
FTPA31 PHFO 282339
TAFHKO
TAF
PHKO 282339Z 2900/2924 27010KT P6SM SCT060
     FM290700 10007KT P6SM SCT030 BKN060
     FM292000 27010KT P6SM SCT060=

USA.gov is the U.S. government's official web portal to all federal, state and local government web resources and services.